Skip to main content Skip to accessibility
This website is not compatible with your web browser. You should install a newer browser. If you live in Jersey and need help upgrading call the States of Jersey web team on 440099.
Homegov.je

L'înformâtion et les sèrvices publyis pouor I'Île dé Jèrri

Local METARs

METAR EGJJ 232150Z AUTO 30007KT 250V350 3400 +RA FEW003/// SCT004/// BKN005/// 09/08 Q1007 REDZ

METAR EGJB 232050Z 30008KT 9999 -RA SCT029 BKN038 08/07 Q1007 RERA

METAR LFRD 232130Z AUTO 14008KT 110V170 9999 BKN006 OVC012 10/10 Q1005 TEMPO 3000 RA BKN010CB BECMG 23022G33KT

METAR LFRC 232130Z AUTO 28005KT 9000 -RA BKN031/// OVC038/// ///TCU 08/07 Q1007

 

 

 

​Times are in Greenwich Mean Time (GMT) and not British Summer Time (BST). They will be one hour different during BST.

Back to top
rating button